Time;durP1;ratioP1;P1;durP2;ratioP2;P2;SDS_P1;SDS_P2;PMS_P1;PMS_P2;Temp;Humidity;BMP_temperature;BMP_pressure;BME280_temperature;BME280_humidity;BME280_pressure;Samples;Min_cycle;Max_cycle;Signal;HPM_P1;HPM_P2
2022/01/24 00:00:59;;;;;;;5.65;4.10;;;6.40;99.90;;;;;;5078251;28;20055;-73
2022/01/24 00:03:24;;;;;;;4.68;3.90;;;6.40;99.90;;;;;;5078110;28;20040;-74
2022/01/24 00:05:50;;;;;;;5.60;3.85;;;6.30;99.90;;;;;;5078200;28;20055;-74
2022/01/24 00:08:16;;;;;;;5.35;3.95;;;6.30;99.90;;;;;;5078002;28;20036;-74
2022/01/24 00:10:44;;;;;;;5.82;4.80;;;6.20;99.90;;;;;;5078038;28;20039;-74
2022/01/24 00:18:28;;;;;;;6.63;4.50;;;6.10;99.90;;;;;;5077784;28;20407;-73
2022/01/24 00:26:45;;;;;;;7.15;5.45;;;6.10;99.90;;;;;;5077890;28;20036;-73
2022/01/24 00:29:11;;;;;;;6.45;5.40;;;6.00;99.90;;;;;;5077767;28;20044;-73
2022/01/24 00:31:37;;;;;;;6.38;5.07;;;6.00;99.90;;;;;;5077745;28;20032;-73
2022/01/24 00:34:04;;;;;;;7.47;5.32;;;6.10;99.90;;;;;;5077657;28;20043;-73
2022/01/24 00:36:29;;;;;;;7.63;6.05;;;6.10;99.90;;;;;;5077660;28;20035;-73
2022/01/24 00:38:55;;;;;;;9.32;5.60;;;6.00;99.90;;;;;;5077806;28;20165;-73
2022/01/24 00:41:22;;;;;;;8.30;5.90;;;6.10;99.90;;;;;;5077474;28;20421;-74
2022/01/24 00:46:30;;;;;;;6.00;4.93;;;6.10;99.90;;;;;;5077650;28;20260;-73
2022/01/24 00:56:51;;;;;;;7.32;5.70;;;6.00;99.90;;;;;;5077176;28;20052;-73
2022/01/24 00:59:17;;;;;;;8.07;5.93;;;6.10;99.90;;;;;;5095235;28;20040;-73
2022/01/24 01:01:43;;;;;;;8.10;6.25;;;6.00;99.90;;;;;;5077099;28;20039;-73
2022/01/24 01:04:08;;;;;;;9.48;6.18;;;6.10;99.90;;;;;;5077044;28;20119;-73
2022/01/24 01:06:34;;;;;;;8.50;6.80;;;6.00;99.90;;;;;;5076971;28;20040;-73
2022/01/24 01:19:57;;;;;;;11.88;7.40;;;5.90;99.90;;;;;;5077040;28;20048;-73
2022/01/24 01:22:23;;;;;;;8.50;6.60;;;5.90;99.90;;;;;;5076659;28;20494;-73
2022/01/24 01:24:54;;;;;;;9.90;6.65;;;6.00;99.90;;;;;;5076594;28;20048;-73
2022/01/24 01:27:26;;;;;;;8.98;6.95;;;5.90;99.90;;;;;;5076567;28;20047;-73
2022/01/24 01:30:03;;;;;;;8.77;7.15;;;5.90;99.90;;;;;;5076545;28;20455;-73
2022/01/24 01:56:05;;;;;;;9.70;7.53;;;6.10;99.90;;;;;;5076153;28;20134;-74
2022/01/24 01:58:31;;;;;;;9.40;7.72;;;6.10;99.90;;;;;;5059562;28;20048;-74
2022/01/24 02:01:00;;;;;;;12.60;8.60;;;6.10;99.90;;;;;;5075956;28;20047;-73
2022/01/24 02:03:27;;;;;;;12.35;8.27;;;6.10;99.90;;;;;;5075819;28;20085;-73
2022/01/24 02:05:53;;;;;;;10.73;8.30;;;6.20;99.90;;;;;;5075833;28;20044;-73
2022/01/24 02:08:23;;;;;;;10.93;7.88;;;6.10;99.90;;;;;;5075727;28;20028;-73
2022/01/24 02:10:48;;;;;;;11.10;8.18;;;6.20;99.90;;;;;;5075783;28;20118;-73
2022/01/24 02:13:14;;;;;;;9.80;7.90;;;6.20;99.90;;;;;;5075951;28;20079;-74
2022/01/24 02:18:37;;;;;;;10.57;8.43;;;6.20;99.90;;;;;;5075771;28;20132;-73
2022/01/24 02:23:39;;;;;;;12.30;9.98;;;6.20;99.90;;;;;;5075402;28;20044;-73
2022/01/24 02:26:10;;;;;;;12.70;9.25;;;6.20;99.90;;;;;;5075719;28;20040;-73
2022/01/24 02:28:50;;;;;;;13.38;9.85;;;6.20;99.90;;;;;;5075536;28;20040;-73
2022/01/24 02:33:45;;;;;;;14.85;10.48;;;6.20;99.90;;;;;;5075436;28;20097;-74
2022/01/24 02:36:11;;;;;;;15.18;11.07;;;6.20;99.90;;;;;;5075108;28;20048;-74
2022/01/24 02:49:32;;;;;;;15.85;11.43;;;6.10;99.90;;;;;;5075199;28;20082;-74
2022/01/24 02:52:09;;;;;;;16.00;11.55;;;6.10;99.90;;;;;;5075285;28;20067;-73
2022/01/24 02:54:38;;;;;;;16.33;12.50;;;6.20;99.90;;;;;;5074216;28;20043;-73
2022/01/24 02:57:05;;;;;;;15.73;12.15;;;6.10;99.90;;;;;;5075377;28;20044;-74
2022/01/24 02:59:31;;;;;;;14.95;12.18;;;6.20;99.90;;;;;;5075269;28;20410;-73
2022/01/24 03:01:57;;;;;;;16.98;13.18;;;6.20;99.90;;;;;;5075115;28;20040;-73
2022/01/24 03:04:22;;;;;;;15.52;12.43;;;6.20;99.90;;;;;;5075059;28;20036;-73
2022/01/24 03:06:48;;;;;;;15.85;12.82;;;6.20;99.90;;;;;;5075073;28;20035;-73
2022/01/24 03:09:14;;;;;;;15.98;12.35;;;6.20;99.90;;;;;;5075089;28;20471;-74
2022/01/24 03:14:28;;;;;;;21.10;13.75;;;6.20;99.90;;;;;;5074981;28;20553;-74
2022/01/24 03:16:54;;;;;;;16.13;12.32;;;6.20;99.90;;;;;;5075059;28;20106;-73
2022/01/24 03:19:20;;;;;;;14.27;11.95;;;6.20;99.90;;;;;;5058326;28;20046;-73
2022/01/24 03:21:45;;;;;;;16.58;12.75;;;6.20;99.90;;;;;;5074927;28;20127;-73
2022/01/24 03:24:12;;;;;;;16.38;13.02;;;6.20;99.90;;;;;;5075068;28;20059;-73
2022/01/24 03:26:38;;;;;;;17.10;13.27;;;6.20;99.90;;;;;;5074938;28;20032;-73
2022/01/24 03:29:05;;;;;;;16.85;12.90;;;6.20;99.90;;;;;;5074817;28;20040;-73
2022/01/24 03:31:31;;;;;;;16.83;13.30;;;6.20;99.90;;;;;;5075046;28;20044;-73
2022/01/24 03:33:57;;;;;;;18.92;14.45;;;6.10;99.90;;;;;;5093166;28;20047;-73
2022/01/24 03:36:22;;;;;;;16.42;13.65;;;6.10;99.90;;;;;;5074593;28;20048;-73
2022/01/24 03:38:48;;;;;;;16.02;13.32;;;6.10;99.90;;;;;;5075021;28;20043;-73
2022/01/24 03:41:14;;;;;;;16.08;13.52;;;6.10;99.90;;;;;;5093057;28;20478;-73
2022/01/24 03:43:39;;;;;;;20.58;13.80;;;6.10;99.90;;;;;;5074600;28;20048;-73
2022/01/24 03:49:09;;;;;;;15.90;13.00;;;6.10;99.90;;;;;;5004008;28;20049;-74
2022/01/24 03:51:35;;;;;;;18.02;13.73;;;6.10;99.90;;;;;;5074574;28;20044;-74
2022/01/24 03:54:01;;;;;;;18.50;13.75;;;6.00;99.90;;;;;;5074618;28;20163;-74
2022/01/24 03:56:26;;;;;;;17.80;14.38;;;6.10;99.90;;;;;;5074450;28;20044;-74
2022/01/24 03:58:52;;;;;;;16.95;13.70;;;6.10;99.90;;;;;;5074800;28;20054;-73
2022/01/24 04:01:18;;;;;;;17.58;13.77;;;6.10;99.90;;;;;;5074497;28;20048;-73
2022/01/24 04:03:44;;;;;;;14.55;12.50;;;6.10;99.90;;;;;;5074608;28;20037;-73
2022/01/24 04:06:10;;;;;;;16.73;12.85;;;6.10;99.90;;;;;;5077312;28;20044;-73
2022/01/24 04:08:35;;;;;;;14.25;12.13;;;6.10;99.90;;;;;;5078422;28;20028;-73
2022/01/24 04:11:09;;;;;;;17.23;13.00;;;6.10;99.90;;;;;;5078073;28;20437;-73
2022/01/24 04:13:38;;;;;;;14.73;12.20;;;6.10;99.90;;;;;;5078078;28;20039;-73
2022/01/24 04:18:53;;;;;;;16.90;13.05;;;6.00;99.90;;;;;;5077899;28;20506;-74
2022/01/24 04:21:23;;;;;;;17.00;13.20;;;6.00;99.90;;;;;;5077879;28;20044;-74
2022/01/24 04:23:57;;;;;;;18.20;13.38;;;6.00;99.90;;;;;;5077779;28;20461;-74
2022/01/24 04:26:22;;;;;;;15.80;13.35;;;6.10;99.90;;;;;;5077758;28;20409;-74
2022/01/24 04:28:48;;;;;;;17.67;14.52;;;6.00;99.90;;;;;;5077743;28;20032;-74
2022/01/24 04:31:14;;;;;;;16.27;14.10;;;6.00;99.90;;;;;;5077821;28;20115;-74
2022/01/24 04:33:39;;;;;;;15.88;13.50;;;6.00;99.90;;;;;;5077689;28;20089;-74
2022/01/24 04:36:05;;;;;;;16.95;13.25;;;6.00;99.90;;;;;;5077412;28;20036;-73
2022/01/24 04:38:31;;;;;;;16.80;14.20;;;6.10;99.90;;;;;;5077664;28;20040;-73
2022/01/24 04:41:00;;;;;;;15.88;13.02;;;6.10;99.90;;;;;;5077534;28;20036;-74
2022/01/24 04:46:30;;;;;;;13.70;12.20;;;6.00;99.90;;;;;;5077479;28;20567;-74
2022/01/24 04:52:11;;;;;;;14.43;12.25;;;6.00;99.90;;;;;;5027168;28;20116;-74
2022/01/24 04:57:00;;;;;;;12.82;10.85;;;5.90;99.90;;;;;;5077160;28;20048;-72
2022/01/24 04:59:26;;;;;;;12.65;11.10;;;6.00;99.90;;;;;;5060422;28;20040;-72
2022/01/24 05:01:51;;;;;;;12.32;10.50;;;6.00;99.90;;;;;;5077443;28;20058;-72
2022/01/24 05:04:17;;;;;;;14.70;11.98;;;6.00;99.90;;;;;;5077038;28;20036;-72
2022/01/24 05:06:43;;;;;;;14.10;11.48;;;6.00;99.90;;;;;;5077284;28;20101;-72
2022/01/24 05:09:08;;;;;;;17.10;12.65;;;6.00;99.90;;;;;;5077007;28;20486;-72
2022/01/24 05:11:44;;;;;;;14.20;12.48;;;6.00;99.90;;;;;;5076971;28;20054;-72
2022/01/24 05:24:48;;;;;;;14.15;11.85;;;5.90;99.90;;;;;;5076633;28;20048;-72
2022/01/24 05:27:14;;;;;;;13.43;11.30;;;5.90;99.90;;;;;;5076853;28;20039;-72
2022/01/24 05:29:39;;;;;;;13.07;10.93;;;5.90;99.90;;;;;;5060163;28;20071;-72
2022/01/24 05:32:08;;;;;;;13.02;11.13;;;5.90;99.90;;;;;;5076903;28;20504;-72
2022/01/24 05:34:34;;;;;;;13.55;11.50;;;6.00;99.90;;;;;;5059772;28;20036;-72
2022/01/24 05:37:00;;;;;;;13.38;11.07;;;5.90;99.90;;;;;;5076258;28;20422;-72
2022/01/24 05:39:26;;;;;;;13.70;11.38;;;5.90;99.90;;;;;;5076630;28;20050;-72
2022/01/24 05:41:51;;;;;;;12.73;10.93;;;6.00;99.90;;;;;;5076692;28;20410;-72
2022/01/24 05:44:17;;;;;;;13.52;11.52;;;6.00;99.90;;;;;;5076166;28;20513;-72
2022/01/24 05:46:43;;;;;;;13.85;11.30;;;6.00;99.90;;;;;;5076142;28;20069;-72
2022/01/24 05:49:09;;;;;;;15.23;11.32;;;6.00;99.90;;;;;;5059655;28;20036;-72
2022/01/24 05:51:34;;;;;;;14.55;11.57;;;6.00;99.90;;;;;;5076162;28;20032;-72
2022/01/24 05:54:00;;;;;;;14.63;11.65;;;6.00;99.90;;;;;;5076134;28;20040;-72
2022/01/24 05:56:25;;;;;;;12.57;11.15;;;6.00;99.90;;;;;;5059440;28;20070;-72
2022/01/24 05:58:51;;;;;;;14.02;11.55;;;6.00;99.90;;;;;;5076290;28;20066;-72
2022/01/24 06:01:16;;;;;;;14.63;11.32;;;6.00;99.90;;;;;;5059616;28;20173;-72
2022/01/24 06:03:42;;;;;;;14.68;11.35;;;6.00;99.90;;;;;;5059442;28;20391;-72
2022/01/24 06:06:08;;;;;;;14.48;11.77;;;6.00;99.90;;;;;;5075831;28;20417;-72
2022/01/24 06:08:34;;;;;;;14.30;11.32;;;6.00;99.90;;;;;;5075809;28;20043;-72
2022/01/24 06:11:00;;;;;;;14.40;11.38;;;6.00;99.90;;;;;;5075800;28;20494;-72
2022/01/24 06:13:26;;;;;;;13.52;11.32;;;6.00;99.90;;;;;;5075754;28;20130;-72
2022/01/24 06:15:52;;;;;;;14.68;12.18;;;6.00;99.90;;;;;;5075676;28;20052;-72
2022/01/24 06:18:20;;;;;;;14.40;12.00;;;6.00;99.90;;;;;;5075911;28;20093;-72
2022/01/24 06:20:46;;;;;;;14.98;11.77;;;6.00;99.90;;;;;;5075623;28;20052;-72
2022/01/24 06:23:16;;;;;;;13.57;11.80;;;6.00;99.90;;;;;;5075843;28;20040;-72
2022/01/24 06:25:42;;;;;;;15.90;11.63;;;6.00;99.90;;;;;;5075763;28;20044;-72
2022/01/24 06:28:08;;;;;;;15.88;12.60;;;6.00;99.90;;;;;;5075257;28;20077;-72
2022/01/24 06:30:33;;;;;;;16.52;12.63;;;5.90;99.90;;;;;;5075578;28;20039;-72
2022/01/24 06:32:59;;;;;;;15.55;11.95;;;6.00;99.90;;;;;;5075468;28;20044;-72
2022/01/24 06:35:25;;;;;;;15.45;12.10;;;5.90;99.90;;;;;;5075456;28;20043;-72
2022/01/24 06:37:50;;;;;;;16.48;12.88;;;5.90;99.90;;;;;;5075388;28;20105;-71
2022/01/24 06:40:16;;;;;;;14.32;11.98;;;5.90;99.90;;;;;;5094063;28;20425;-71
2022/01/24 06:42:42;;;;;;;15.98;12.25;;;5.90;99.90;;;;;;5075526;28;20405;-71
2022/01/24 06:45:09;;;;;;;16.67;12.02;;;5.90;99.90;;;;;;5075246;28;20044;-71
2022/01/24 06:47:35;;;;;;;15.73;11.98;;;5.90;99.90;;;;;;5075159;28;20036;-71
2022/01/24 06:50:01;;;;;;;15.00;11.18;;;5.90;99.90;;;;;;5075207;28;20397;-71
2022/01/24 06:52:26;;;;;;;15.52;12.85;;;5.90;99.90;;;;;;5075268;28;20032;-72
2022/01/24 06:54:52;;;;;;;18.77;13.52;;;5.90;99.90;;;;;;5075088;28;20050;-71
2022/01/24 06:57:18;;;;;;;22.85;13.60;;;5.90;99.90;;;;;;5075309;28;20066;-71
2022/01/24 06:59:45;;;;;;;16.30;12.70;;;5.90;99.90;;;;;;5058484;28;20044;-71
2022/01/24 07:02:12;;;;;;;16.40;13.60;;;6.00;99.90;;;;;;5075307;28;20047;-71
2022/01/24 07:04:39;;;;;;;17.02;13.48;;;6.00;99.90;;;;;;5074984;28;20040;-72
2022/01/24 07:07:05;;;;;;;18.00;14.05;;;6.00;99.90;;;;;;5058438;28;20098;-71
2022/01/24 07:09:31;;;;;;;19.98;14.38;;;6.00;99.90;;;;;;5075056;28;20119;-71
2022/01/24 07:12:00;;;;;;;19.25;13.63;;;6.00;99.90;;;;;;5075021;28;20123;-71
2022/01/24 07:14:25;;;;;;;19.02;14.70;;;6.00;99.90;;;;;;5058315;28;20040;-72
2022/01/24 07:19:23;;;;;;;17.40;14.85;;;6.00;99.90;;;;;;5075056;28;20048;-72
2022/01/24 07:21:49;;;;;;;22.17;17.27;;;6.00;99.90;;;;;;5074925;28;20036;-72
2022/01/24 07:24:14;;;;;;;23.88;17.55;;;6.00;99.90;;;;;;5092835;28;20097;-72
2022/01/24 07:26:40;;;;;;;21.45;16.45;;;6.00;99.90;;;;;;5058268;28;20035;-72
2022/01/24 07:29:06;;;;;;;23.92;16.17;;;6.00;99.90;;;;;;5074809;28;20105;-72
2022/01/24 07:31:32;;;;;;;23.23;17.15;;;6.00;99.90;;;;;;5074793;28;20078;-72
2022/01/24 07:33:57;;;;;;;26.00;18.42;;;6.00;99.90;;;;;;5074997;28;20036;-72
2022/01/24 07:36:24;;;;;;;29.88;20.20;;;6.00;99.90;;;;;;5074565;28;20486;-73
2022/01/24 07:38:50;;;;;;;28.60;20.63;;;6.00;99.90;;;;;;5074760;28;20169;-73
2022/01/24 07:41:22;;;;;;;31.40;21.50;;;6.00;99.90;;;;;;5077698;28;20089;-73
2022/01/24 07:43:48;;;;;;;25.33;19.70;;;6.00;99.90;;;;;;5078945;28;20050;-73
2022/01/24 07:46:13;;;;;;;31.17;21.55;;;6.00;99.90;;;;;;5078496;28;20118;-73
2022/01/24 07:48:39;;;;;;;29.85;21.95;;;5.90;99.90;;;;;;5078791;28;20040;-73
2022/01/24 07:51:04;;;;;;;35.00;23.30;;;6.00;99.90;;;;;;5078488;28;20465;-73
2022/01/24 07:53:30;;;;;;;33.03;23.15;;;6.00;99.90;;;;;;5078333;28;20459;-74
2022/01/24 07:55:55;;;;;;;33.17;23.48;;;6.00;99.90;;;;;;5061810;28;20047;-73
2022/01/24 07:58:21;;;;;;;35.47;24.55;;;6.00;99.90;;;;;;5078360;28;20155;-73
2022/01/24 08:00:47;;;;;;;33.63;24.25;;;6.00;99.90;;;;;;5078331;28;20036;-73
2022/01/24 08:03:12;;;;;;;35.75;25.00;;;6.00;99.90;;;;;;5078196;28;20051;-73
2022/01/24 08:05:38;;;;;;;38.50;26.20;;;6.00;99.90;;;;;;5078681;28;20056;-73
2022/01/24 08:08:04;;;;;;;38.42;25.50;;;6.00;99.90;;;;;;5061463;28;20072;-73
2022/01/24 08:10:30;;;;;;;37.33;26.23;;;6.00;99.90;;;;;;5078268;28;20036;-73
2022/01/24 08:12:56;;;;;;;39.38;27.10;;;6.00;99.90;;;;;;5078048;28;20081;-73
2022/01/24 08:15:21;;;;;;;40.28;28.30;;;6.00;99.90;;;;;;5077990;28;20122;-73
2022/01/24 08:17:47;;;;;;;38.13;26.20;;;6.00;99.90;;;;;;5077949;28;20040;-73
2022/01/24 08:20:14;;;;;;;44.65;31.17;;;5.90;99.90;;;;;;5077953;28;20036;-73
2022/01/24 08:22:40;;;;;;;48.67;32.90;;;6.00;99.90;;;;;;5077933;28;20035;-73
2022/01/24 08:25:07;;;;;;;49.20;33.05;;;6.00;99.90;;;;;;5077804;28;20040;-73
2022/01/24 08:27:34;;;;;;;49.10;32.88;;;6.00;99.90;;;;;;5077714;28;20043;-73
2022/01/24 08:30:00;;;;;;;52.22;35.78;;;6.00;99.90;;;;;;5078008;28;20036;-73
2022/01/24 08:32:26;;;;;;;53.17;36.15;;;6.00;99.90;;;;;;5077927;28;20036;-73
2022/01/24 08:34:51;;;;;;;55.90;36.42;;;6.00;99.90;;;;;;5077798;28;20089;-73
2022/01/24 08:37:17;;;;;;;57.15;36.55;;;6.00;99.90;;;;;;5060919;28;20048;-73
2022/01/24 08:39:44;;;;;;;57.83;37.05;;;6.00;99.90;;;;;;5077796;28;20043;-74
2022/01/24 08:42:23;;;;;;;61.45;40.20;;;6.00;99.90;;;;;;5077477;28;20498;-74
2022/01/24 08:47:29;;;;;;;61.83;39.80;;;6.00;99.90;;;;;;5095833;28;20079;-73
2022/01/24 08:49:56;;;;;;;67.65;43.05;;;6.00;99.90;;;;;;5077360;28;20046;-73
2022/01/24 08:52:22;;;;;;;66.38;39.40;;;6.00;99.90;;;;;;5077499;28;20265;-73
2022/01/24 08:54:48;;;;;;;63.70;40.78;;;6.00;99.90;;;;;;5095436;28;20508;-73
2022/01/24 08:57:13;;;;;;;61.58;41.03;;;6.00;99.90;;;;;;5060482;28;20082;-73
2022/01/24 08:59:41;;;;;;;60.78;39.95;;;6.00;99.90;;;;;;5077231;28;20079;-73
2022/01/24 09:02:08;;;;;;;63.60;39.78;;;6.00;99.90;;;;;;5077153;28;20040;-73
2022/01/24 09:04:34;;;;;;;63.55;41.38;;;6.00;99.90;;;;;;5077046;28;20036;-73
2022/01/24 09:07:04;;;;;;;59.55;39.05;;;6.00;99.90;;;;;;5077268;28;20036;-73
2022/01/24 09:09:33;;;;;;;40.92;28.38;;;6.10;99.90;;;;;;5077033;28;20566;-73
2022/01/24 09:11:59;;;;;;;57.13;35.95;;;6.00;99.90;;;;;;5076985;28;20036;-73
2022/01/24 09:14:25;;;;;;;56.08;37.85;;;6.00;99.90;;;;;;5077222;28;20040;-73
2022/01/24 09:16:51;;;;;;;49.60;34.55;;;6.00;99.90;;;;;;5076886;28;20406;-73
2022/01/24 09:19:16;;;;;;;51.25;35.35;;;5.90;99.90;;;;;;5076894;28;20040;-73
2022/01/24 09:21:42;;;;;;;47.17;30.85;;;6.00;99.90;;;;;;5076988;28;20065;-73
2022/01/24 09:24:07;;;;;;;46.15;32.70;;;5.90;99.90;;;;;;5076825;28;20036;-74
2022/01/24 09:26:33;;;;;;;40.67;30.20;;;5.90;99.90;;;;;;5076800;28;20486;-74
2022/01/24 09:28:59;;;;;;;43.55;31.70;;;5.90;99.90;;;;;;5076780;28;20113;-74
2022/01/24 09:31:25;;;;;;;43.70;31.70;;;6.00;99.90;;;;;;5076564;28;20067;-74
2022/01/24 09:33:52;;;;;;;43.53;31.98;;;6.00;99.90;;;;;;5076552;28;20043;-73
2022/01/24 09:36:18;;;;;;;46.65;32.60;;;6.00;99.90;;;;;;5076302;28;20123;-73
2022/01/24 09:38:44;;;;;;;44.47;31.85;;;6.00;99.90;;;;;;5076429;28;20126;-73
2022/01/24 09:41:12;;;;;;;41.30;30.75;;;6.00;99.90;;;;;;5076662;28;20457;-73
2022/01/24 09:43:39;;;;;;;45.30;32.17;;;6.00;99.90;;;;;;5076444;28;20048;-73
2022/01/24 09:46:05;;;;;;;46.13;33.50;;;6.00;99.90;;;;;;5076181;28;20035;-73
2022/01/24 09:48:31;;;;;;;44.08;33.40;;;6.00;99.90;;;;;;5076295;28;20080;-73
2022/01/24 09:50:57;;;;;;;49.47;36.83;;;6.00;99.90;;;;;;5076202;28;20072;-73
2022/01/24 09:53:25;;;;;;;50.00;36.95;;;6.00;99.90;;;;;;5076292;28;20055;-73
2022/01/24 09:55:52;;;;;;;52.55;38.03;;;6.10;99.90;;;;;;5076212;28;20078;-73
2022/01/24 09:58:19;;;;;;;57.40;41.25;;;6.00;99.90;;;;;;5075970;28;20047;-73
2022/01/24 10:00:45;;;;;;;57.53;40.72;;;6.00;99.90;;;;;;5076209;28;20444;-73
2022/01/24 10:03:12;;;;;;;60.85;42.50;;;6.00;99.90;;;;;;5058976;28;20043;-73
2022/01/24 10:05:39;;;;;;;60.33;43.35;;;6.00;99.90;;;;;;5075944;28;20501;-74
2022/01/24 10:08:08;;;;;;;64.30;43.95;;;6.10;99.90;;;;;;5076095;28;20051;-74
2022/01/24 10:10:44;;;;;;;63.58;44.03;;;6.00;99.90;;;;;;5076163;28;20043;-74
2022/01/24 10:19:20;;;;;;;60.58;42.22;;;6.00;99.90;;;;;;5075587;28;20048;-74
2022/01/24 10:21:47;;;;;;;62.00;43.70;;;6.00;99.90;;;;;;5075632;28;20093;-74
2022/01/24 10:24:36;;;;;;;61.95;42.95;;;6.00;99.90;;;;;;5075494;28;20044;-74
2022/01/24 10:27:11;;;;;;;59.83;42.65;;;6.00;99.90;;;;;;5075504;28;20036;-74
2022/01/24 10:30:08;;;;;;;63.13;43.05;;;6.00;99.90;;;;;;5075508;28;20085;-74
2022/01/24 10:32:41;;;;;;;67.70;44.83;;;5.90;99.90;;;;;;5075594;28;20044;-74
2022/01/24 10:35:40;;;;;;;60.67;42.67;;;5.90;99.90;;;;;;5058786;28;20089;-74
2022/01/24 10:38:16;;;;;;;61.33;44.03;;;5.90;99.90;;;;;;4991671;28;20112;-74
2022/01/24 10:41:06;;;;;;;63.33;44.90;;;5.90;99.90;;;;;;4975695;28;20058;-73
2022/01/24 10:43:33;;;;;;;67.50;43.58;;;5.90;99.90;;;;;;4991894;28;20047;-73
2022/01/24 10:46:00;;;;;;;65.07;45.05;;;5.90;99.90;;;;;;4975633;28;20045;-73
2022/01/24 10:48:32;;;;;;;63.05;43.78;;;5.90;99.90;;;;;;4991819;28;20050;-73
2022/01/24 10:51:22;;;;;;;67.05;45.63;;;5.90;99.90;;;;;;4975854;28;20065;-73
2022/01/24 10:53:53;;;;;;;64.00;43.50;;;5.90;99.90;;;;;;4975572;28;20548;-73
2022/01/24 10:56:41;;;;;;;63.25;44.35;;;5.90;99.90;;;;;;4959618;28;20096;-73
2022/01/24 10:59:06;;;;;;;66.43;44.70;;;5.90;99.90;;;;;;4975716;28;20452;-73
2022/01/24 11:01:33;;;;;;;66.47;44.47;;;5.90;99.90;;;;;;4975493;28;20058;-73
2022/01/24 11:04:08;;;;;;;64.18;44.00;;;5.80;99.90;;;;;;4975291;28;20509;-73
2022/01/24 11:06:37;;;;;;;66.35;45.30;;;5.80;99.90;;;;;;4975308;28;20039;-73
2022/01/24 11:09:23;;;;;;;65.72;44.60;;;5.80;99.90;;;;;;4975470;28;20050;-73
2022/01/24 11:11:54;;;;;;;63.88;42.42;;;5.80;99.90;;;;;;4975532;28;20093;-73
2022/01/24 11:14:21;;;;;;;64.78;43.83;;;5.80;99.90;;;;;;5021944;28;20052;-73
2022/01/24 11:16:48;;;;;;;63.65;43.95;;;5.80;99.90;;;;;;5078996;28;20044;-73
2022/01/24 11:19:25;;;;;;;64.07;44.15;;;5.80;99.90;;;;;;5079112;28;20036;-73
2022/01/24 11:21:53;;;;;;;63.30;42.95;;;5.80;99.90;;;;;;5079374;28;20044;-73
2022/01/24 11:24:23;;;;;;;66.90;43.45;;;5.80;99.90;;;;;;5078937;28;20089;-73
2022/01/24 11:26:49;;;;;;;61.90;42.10;;;5.80;99.90;;;;;;5062499;28;20067;-73
2022/01/24 11:29:18;;;;;;;62.13;43.17;;;5.80;99.90;;;;;;5078893;28;20074;-73
2022/01/24 11:31:50;;;;;;;60.75;41.67;;;5.80;99.90;;;;;;5062223;28;20071;-73
2022/01/24 11:34:33;;;;;;;60.80;43.08;;;5.80;99.90;;;;;;5078843;28;20043;-73
2022/01/24 11:36:59;;;;;;;63.08;42.42;;;5.80;99.90;;;;;;5078631;28;20044;-73
2022/01/24 11:39:25;;;;;;;63.67;42.58;;;5.70;99.90;;;;;;5078747;28;20040;-73
2022/01/24 11:41:51;;;;;;;60.95;42.88;;;5.70;99.90;;;;;;5062742;28;20051;-73
2022/01/24 11:44:18;;;;;;;57.85;42.10;;;5.80;99.90;;;;;;5078673;28;20032;-73
2022/01/24 11:46:49;;;;;;;62.85;43.55;;;5.80;99.90;;;;;;5078814;28;20097;-72
2022/01/24 11:49:34;;;;;;;59.80;42.00;;;5.80;99.90;;;;;;5078788;28;20185;-72
2022/01/24 11:52:12;;;;;;;56.92;42.05;;;5.80;99.90;;;;;;5078561;28;20032;-72
2022/01/24 11:57:35;;;;;;;59.17;42.80;;;5.70;99.90;;;;;;5078544;28;20056;-73
2022/01/24 12:00:07;;;;;;;61.25;44.40;;;5.70;99.90;;;;;;5078426;28;20040;-73
2022/01/24 12:02:38;;;;;;;62.15;44.15;;;5.70;99.90;;;;;;5078203;28;20464;-73
2022/01/24 12:05:16;;;;;;;59.22;43.05;;;5.70;99.90;;;;;;5078174;28;20039;-73
2022/01/24 12:07:47;;;;;;;63.53;44.38;;;5.70;99.90;;;;;;5078225;28;20032;-73
2022/01/24 12:10:26;;;;;;;61.67;42.25;;;5.70;99.90;;;;;;5078164;28;20123;-73
2022/01/24 12:13:01;;;;;;;62.78;43.08;;;5.70;99.90;;;;;;5078117;28;20501;-73
2022/01/24 12:15:53;;;;;;;58.38;41.78;;;5.70;99.90;;;;;;5078228;28;20076;-73
2022/01/24 12:18:27;;;;;;;56.63;41.05;;;5.70;99.90;;;;;;5073469;28;20087;-73
2022/01/24 12:20:54;;;;;;;57.50;41.05;;;5.70;99.90;;;;;;5077947;28;20423;-73
2022/01/24 12:23:20;;;;;;;59.17;41.72;;;5.70;99.90;;;;;;5077761;28;20040;-73
2022/01/24 12:26:05;;;;;;;54.35;41.25;;;5.80;99.90;;;;;;5077729;28;20055;-73
2022/01/24 12:28:33;;;;;;;61.90;42.30;;;5.80;99.90;;;;;;5078089;28;20232;-73
2022/01/24 12:30:59;;;;;;;48.30;37.85;;;5.80;99.90;;;;;;5078073;28;20520;-73
2022/01/24 12:33:51;;;;;;;47.83;36.95;;;5.80;99.90;;;;;;5078006;28;20036;-73
2022/01/24 12:36:36;;;;;;;47.92;35.78;;;5.80;99.90;;;;;;5072626;28;20135;-73
2022/01/24 12:39:09;;;;;;;50.70;37.85;;;5.80;99.90;;;;;;5077368;28;20048;-73
2022/01/24 12:41:38;;;;;;;;;;;5.80;99.90;;;;;;5078330;28;20495;-73
2022/01/24 12:46:33;;;;;;;44.38;36.22;;;5.70;99.90;;;;;;5077256;28;20556;-73
2022/01/24 12:49:00;;;;;;;45.65;35.22;;;5.70;99.90;;;;;;5077411;28;20083;-73
2022/01/24 12:51:29;;;;;;;46.80;35.53;;;5.70;99.90;;;;;;5077694;28;20078;-73
2022/01/24 12:53:56;;;;;;;47.30;36.25;;;5.70;99.90;;;;;;5077274;28;20402;-73
2022/01/24 12:56:27;;;;;;;44.15;35.20;;;5.70;99.90;;;;;;5060790;28;20039;-73
2022/01/24 12:58:54;;;;;;;45.72;35.42;;;5.70;99.90;;;;;;5077169;28;20048;-73
2022/01/24 13:01:29;;;;;;;44.55;33.65;;;5.70;99.90;;;;;;5077091;28;20040;-73
2022/01/24 13:03:58;;;;;;;45.45;35.90;;;5.60;99.90;;;;;;5076998;28;20482;-73
2022/01/24 13:06:25;;;;;;;47.15;36.17;;;5.60;99.90;;;;;;5076983;28;20044;-73
2022/01/24 13:09:14;;;;;;;48.05;34.35;;;5.60;99.90;;;;;;5077362;28;20067;-73
2022/01/24 13:11:52;;;;;;;44.92;35.22;;;5.60;99.90;;;;;;5077285;28;20044;-73
2022/01/24 13:14:24;;;;;;;42.65;34.13;;;5.70;99.90;;;;;;5077010;28;20097;-73
2022/01/24 13:25:07;;;;;;;44.33;35.17;;;5.60;99.90;;;;;;5076666;28;20048;-73
2022/01/24 13:27:41;;;;;;;44.13;35.30;;;5.70;99.90;;;;;;5076543;28;20668;-73
2022/01/24 13:30:24;;;;;;;46.53;35.95;;;5.60;99.90;;;;;;5076610;28;20482;-73
2022/01/24 13:32:51;;;;;;;47.20;35.45;;;5.60;99.90;;;;;;5076628;28;20043;-73
2022/01/24 13:35:30;;;;;;;44.80;35.38;;;5.60;99.90;;;;;;5076471;28;20048;-73
2022/01/24 13:38:06;;;;;;;41.35;33.40;;;5.60;99.90;;;;;;5075504;28;20039;-73
2022/01/24 13:40:54;;;;;;;42.15;34.25;;;5.60;99.90;;;;;;5076423;28;20447;-73
2022/01/24 13:43:47;;;;;;;43.83;34.28;;;5.50;99.90;;;;;;5076530;28;20525;-72
2022/01/24 13:46:27;;;;;;;44.73;35.17;;;5.60;99.90;;;;;;5076289;28;20126;-72
2022/01/24 13:48:56;;;;;;;42.35;34.28;;;5.60;99.90;;;;;;5076322;28;20044;-72
2022/01/24 13:51:38;;;;;;;47.85;35.47;;;5.60;99.90;;;;;;5076243;28;20141;-72
2022/01/24 13:54:06;;;;;;;40.50;32.50;;;5.60;99.90;;;;;;5076535;28;20062;-72
2022/01/24 13:56:35;;;;;;;43.55;34.53;;;5.50;99.90;;;;;;5076168;28;20132;-72
2022/01/24 13:59:03;;;;;;;42.30;32.80;;;5.50;99.90;;;;;;5076750;28;20105;-72
2022/01/24 14:01:29;;;;;;;46.28;34.83;;;5.60;99.90;;;;;;5094489;28;20506;-72
2022/01/24 14:04:00;;;;;;;43.83;34.08;;;5.50;99.90;;;;;;5075876;28;20077;-72
2022/01/24 14:06:30;;;;;;;42.63;34.10;;;5.60;99.90;;;;;;5075885;28;20055;-73
2022/01/24 14:09:11;;;;;;;44.55;33.28;;;5.60;99.90;;;;;;5076201;28;20461;-73
2022/01/24 14:11:45;;;;;;;44.65;34.75;;;5.60;99.90;;;;;;5076033;28;20040;-72
2022/01/24 14:14:15;;;;;;;39.38;31.15;;;5.60;99.90;;;;;;5076038;28;20040;-73
2022/01/24 14:19:07;;;;;;;43.22;33.83;;;5.60;99.90;;;;;;5076618;28;20454;-72
2022/01/24 14:21:33;;;;;;;42.25;32.55;;;5.60;99.90;;;;;;5076307;28;20475;-73
2022/01/24 14:24:00;;;;;;;42.70;32.42;;;5.50;99.90;;;;;;5075612;28;20072;-74
2022/01/24 14:26:28;;;;;;;38.75;31.63;;;5.60;99.90;;;;;;5059106;28;20035;-72
2022/01/24 14:29:08;;;;;;;40.42;31.17;;;5.60;99.90;;;;;;5093930;28;20072;-72
2022/01/24 14:31:33;;;;;;;35.22;28.75;;;5.60;99.90;;;;;;5075525;28;20040;-72
2022/01/24 14:34:01;;;;;;;36.83;31.02;;;5.50;99.90;;;;;;5075508;28;20047;-73
2022/01/24 14:36:27;;;;;;;38.65;31.45;;;5.60;99.90;;;;;;5075221;28;20071;-72
2022/01/24 14:38:59;;;;;;;33.67;28.67;;;5.50;99.90;;;;;;5075719;28;20133;-72
2022/01/24 14:41:44;;;;;;;33.60;27.23;;;5.60;99.90;;;;;;5075749;28;20044;-72
2022/01/24 14:46:56;;;;;;;32.00;28.00;;;5.50;99.90;;;;;;5075514;28;20040;-72
2022/01/24 14:49:25;;;;;;;34.35;29.42;;;5.50;99.90;;;;;;5075085;28;20047;-72
2022/01/24 14:52:02;;;;;;;33.08;28.38;;;5.40;99.90;;;;;;5075155;28;20444;-73
2022/01/24 14:54:31;;;;;;;36.67;30.98;;;5.50;99.90;;;;;;5075414;28;20119;-73
2022/01/24 14:56:59;;;;;;;36.97;29.92;;;5.50;99.90;;;;;;5075044;28;20075;-73
2022/01/24 14:59:26;;;;;;;31.88;27.67;;;5.50;99.90;;;;;;5075394;28;20090;-73